createdAt,value
2023-05-05T00:00:10.614Z,30.22
2023-05-05T00:02:12.353Z,30.31
2023-05-05T00:04:14.139Z,29.99
2023-05-05T00:06:16.006Z,30.05
2023-05-05T00:08:17.767Z,30.29
2023-05-05T00:10:19.531Z,30.26
2023-05-05T00:12:20.994Z,30.14
2023-05-05T00:14:22.520Z,30.24
2023-05-05T00:16:24.150Z,30.19
2023-05-05T00:18:25.700Z,30.38
2023-05-05T00:20:27.194Z,30.17
2023-05-05T00:22:28.848Z,30.27
2023-05-05T00:24:30.299Z,30.28
2023-05-05T00:26:31.784Z,30.01
2023-05-05T00:28:33.240Z,30.01
2023-05-05T00:30:34.851Z,30.30
2023-05-05T00:32:36.581Z,29.86
2023-05-05T00:34:38.270Z,29.98
2023-05-05T00:36:39.924Z,30.35
2023-05-05T00:38:41.462Z,30.33
2023-05-05T00:40:42.952Z,30.38
2023-05-05T00:42:48.157Z,30.38
2023-05-05T00:44:49.613Z,30.35
2023-05-05T00:46:51.311Z,30.06
2023-05-05T00:48:53.217Z,30.28
2023-05-05T00:50:54.700Z,30.03
2023-05-05T00:52:57.596Z,30.04
2023-05-05T00:54:59.385Z,30.23
2023-05-05T00:57:02.187Z,30.35
2023-05-05T00:59:04.294Z,30.34
2023-05-05T01:01:05.685Z,30.27
2023-05-05T01:03:07.370Z,30.39
2023-05-05T01:05:09.549Z,30.20
2023-05-05T01:07:26.712Z,30.22
2023-05-05T01:09:28.277Z,30.04
2023-05-05T01:11:42.244Z,30.32
2023-05-05T01:13:58.021Z,30.24
2023-05-05T01:16:18.756Z,30.16
2023-05-05T01:18:40.433Z,29.97
2023-05-05T01:20:46.924Z,30.15
2023-05-05T01:22:57.000Z,29.91
2023-05-05T01:25:17.873Z,30.23
2023-05-05T01:27:45.371Z,30.36
2023-05-05T01:29:52.928Z,30.16
2023-05-05T01:32:01.550Z,30.25
2023-05-05T01:34:08.555Z,30.33
2023-05-05T01:36:15.589Z,30.27
2023-05-05T01:38:19.166Z,30.27
2023-05-05T01:40:23.001Z,30.33
2023-05-05T01:42:25.214Z,30.37
2023-05-05T01:44:27.811Z,30.17
2023-05-05T01:46:30.475Z,30.17
2023-05-05T01:48:33.389Z,30.25
2023-05-05T01:50:35.836Z,30.23
2023-05-05T01:52:38.262Z,30.16
2023-05-05T01:54:40.455Z,30.28
2023-05-05T01:56:43.046Z,30.06
2023-05-05T01:58:45.071Z,30.08
2023-05-05T02:00:47.194Z,30.39
2023-05-05T02:02:49.808Z,30.47
2023-05-05T02:04:53.118Z,30.18
2023-05-05T02:06:56.266Z,30.29
2023-05-05T02:08:58.855Z,30.10
2023-05-05T02:11:00.922Z,30.34
2023-05-05T02:13:03.176Z,30.16
2023-05-05T02:15:05.166Z,30.37
2023-05-05T02:17:07.372Z,30.28
2023-05-05T02:19:09.036Z,30.37
2023-05-05T02:21:10.741Z,30.27
2023-05-05T02:23:12.186Z,30.40
2023-05-05T02:25:13.809Z,30.14
2023-05-05T02:27:17.711Z,30.49
2023-05-05T02:29:22.425Z,30.37
2023-05-05T02:31:26.396Z,30.44
2023-05-05T02:33:29.356Z,30.42
2023-05-05T02:35:36.490Z,29.97
2023-05-05T02:37:38.901Z,30.25
2023-05-05T02:39:47.559Z,30.39
2023-05-05T02:41:49.579Z,30.31
2023-05-05T02:43:51.163Z,30.53
2023-05-05T02:45:52.654Z,30.29
2023-05-05T02:47:54.138Z,30.34
2023-05-05T02:49:55.681Z,30.29
2023-05-05T02:51:57.988Z,30.52
2023-05-05T02:53:59.903Z,30.46
2023-05-05T02:56:08.125Z,30.48
2023-05-05T02:58:30.570Z,30.16
2023-05-05T03:00:43.919Z,30.45
2023-05-05T03:02:57.897Z,30.15
2023-05-05T03:05:02.479Z,30.38
2023-05-05T03:07:07.170Z,30.49
2023-05-05T03:09:11.159Z,30.17
2023-05-05T03:11:39.160Z,30.14
2023-05-05T03:13:42.800Z,30.48
2023-05-05T03:15:46.253Z,30.41
2023-05-05T03:17:48.815Z,30.58
2023-05-05T03:19:51.112Z,30.46
2023-05-05T03:21:52.828Z,30.10
2023-05-05T03:23:54.312Z,30.27
2023-05-05T03:25:55.752Z,30.42
2023-05-05T03:27:57.286Z,30.22
2023-05-05T03:29:59.289Z,30.30
2023-05-05T03:32:01.456Z,30.38
2023-05-05T03:34:03.001Z,30.30
2023-05-05T03:36:04.564Z,30.50
2023-05-05T03:38:06.070Z,30.53
2023-05-05T03:40:08.206Z,30.24
2023-05-05T03:42:09.977Z,30.49
2023-05-05T03:44:11.395Z,30.43
2023-05-05T03:46:12.993Z,30.24
2023-05-05T03:48:14.574Z,30.47
2023-05-05T03:50:16.372Z,30.44
2023-05-05T03:52:18.209Z,30.44
2023-05-05T03:54:19.754Z,30.21
2023-05-05T03:56:21.366Z,30.43
2023-05-05T03:58:22.841Z,30.51
2023-05-05T04:00:24.358Z,30.34
2023-05-05T04:02:25.859Z,30.37
2023-05-05T04:04:27.492Z,30.36
2023-05-05T04:06:29.112Z,30.15
2023-05-05T04:08:30.526Z,30.50
2023-05-05T04:10:32.138Z,30.47
2023-05-05T04:12:34.057Z,30.60
2023-05-05T04:14:35.789Z,30.56
2023-05-05T04:16:37.431Z,30.16
2023-05-05T04:18:38.881Z,30.47
2023-05-05T04:20:40.665Z,30.62
2023-05-05T04:22:42.316Z,30.16
2023-05-05T04:24:43.848Z,30.49
2023-05-05T04:26:45.577Z,30.27
2023-05-05T04:28:47.010Z,30.21
2023-05-05T04:30:48.421Z,30.35
2023-05-05T04:32:49.894Z,30.59
2023-05-05T04:34:51.513Z,30.53
2023-05-05T04:36:52.938Z,30.53
2023-05-05T04:38:54.784Z,30.55
2023-05-05T04:40:56.385Z,30.59
2023-05-05T04:42:57.835Z,30.54
2023-05-05T04:44:59.352Z,30.48
2023-05-05T04:47:01.046Z,30.67
2023-05-05T04:49:04.956Z,30.79
2023-05-05T04:51:06.789Z,30.62
2023-05-05T04:53:08.231Z,30.60
2023-05-05T04:55:10.725Z,30.30
2023-05-05T04:57:12.187Z,30.52
2023-05-05T04:59:16.728Z,30.43
2023-05-05T05:01:18.222Z,30.62
2023-05-05T05:03:19.811Z,30.61
2023-05-05T05:05:21.659Z,30.68
2023-05-05T05:07:24.617Z,30.67
2023-05-05T05:09:26.015Z,30.88
2023-05-05T05:11:27.858Z,30.78
2023-05-05T05:13:29.359Z,30.70
2023-05-05T05:15:30.987Z,30.78
2023-05-05T05:17:33.318Z,30.41
2023-05-05T05:19:34.917Z,30.83
2023-05-05T05:21:36.433Z,30.99
2023-05-05T05:23:37.857Z,30.76
2023-05-05T05:25:39.274Z,30.55
2023-05-05T05:27:41.716Z,30.76
2023-05-05T05:29:43.727Z,30.85
2023-05-05T05:31:45.204Z,30.94
2023-05-05T05:33:46.607Z,30.95
2023-05-05T05:35:48.098Z,30.97
2023-05-05T05:37:50.744Z,31.11
2023-05-05T05:39:52.340Z,30.91
2023-05-05T05:41:53.774Z,31.02
2023-05-05T05:43:55.344Z,30.73
2023-05-05T05:45:56.880Z,30.73
2023-05-05T05:47:58.417Z,30.99
2023-05-05T05:50:00.168Z,31.00
2023-05-05T05:52:01.795Z,30.98
2023-05-05T05:54:03.459Z,30.75
2023-05-05T05:56:05.108Z,31.11
2023-05-05T05:58:06.556Z,30.93
2023-05-05T06:00:08.734Z,30.93
2023-05-05T06:02:10.552Z,31.07
2023-05-05T06:04:13.377Z,30.76
2023-05-05T06:06:14.827Z,30.96
2023-05-05T06:08:16.379Z,31.12
2023-05-05T06:10:30.324Z,31.25
2023-05-05T06:12:31.985Z,31.18
2023-05-05T06:14:33.418Z,31.14
2023-05-05T06:16:35.076Z,31.17
2023-05-05T06:18:36.797Z,31.11
2023-05-05T06:20:38.614Z,31.29
2023-05-05T06:22:40.159Z,31.25
2023-05-05T06:24:41.581Z,31.22
2023-05-05T06:26:43.027Z,31.19
2023-05-05T06:28:44.626Z,31.28
2023-05-05T06:30:46.209Z,31.36
2023-05-05T06:32:47.707Z,31.33
2023-05-05T06:34:49.404Z,31.40
2023-05-05T06:36:51.593Z,31.47
2023-05-05T06:38:53.079Z,31.30
2023-05-05T06:40:54.648Z,31.02
2023-05-05T06:42:56.163Z,31.07
2023-05-05T06:44:57.700Z,31.23
2023-05-05T06:46:59.243Z,31.35
2023-05-05T06:49:00.759Z,31.07
2023-05-05T06:51:02.445Z,31.48
2023-05-05T06:53:03.897Z,31.51
2023-05-05T06:55:05.949Z,31.59
2023-05-05T06:57:07.380Z,31.63
2023-05-05T06:59:08.851Z,31.42
2023-05-05T07:01:10.346Z,31.33
2023-05-05T07:03:12.089Z,31.54
2023-05-05T07:05:13.735Z,31.36
2023-05-05T07:07:15.309Z,31.51
2023-05-05T07:09:17.502Z,31.60
2023-05-05T07:11:19.885Z,31.60
2023-05-05T07:13:21.734Z,31.47
2023-05-05T07:15:27.353Z,31.54
2023-05-05T07:17:30.521Z,31.63
2023-05-05T07:19:31.962Z,31.51
2023-05-05T07:21:34.271Z,31.30
2023-05-05T07:23:37.481Z,31.37
2023-05-05T07:25:38.961Z,31.34
2023-05-05T07:27:40.721Z,31.29
2023-05-05T07:29:42.131Z,31.63
2023-05-05T07:31:43.590Z,31.54
2023-05-05T07:33:45.424Z,31.54
2023-05-05T07:35:46.858Z,31.32
2023-05-05T07:37:48.496Z,31.38
2023-05-05T07:39:50.182Z,31.56
2023-05-05T07:41:51.643Z,31.56
2023-05-05T07:43:53.395Z,31.53
2023-05-05T07:45:54.985Z,31.63
2023-05-05T07:47:56.477Z,31.58
2023-05-05T07:49:58.147Z,31.56
2023-05-05T07:51:59.937Z,31.67
2023-05-05T07:54:01.609Z,31.87
2023-05-05T07:56:03.247Z,31.93
2023-05-05T07:58:05.249Z,32.18
2023-05-05T08:00:07.217Z,32.72
2023-05-05T08:02:09.852Z,32.94
2023-05-05T08:04:11.335Z,33.03
2023-05-05T08:06:15.958Z,32.96
2023-05-05T08:08:17.433Z,32.99
2023-05-05T08:10:19.029Z,33.28
2023-05-05T08:12:20.450Z,32.93
2023-05-05T08:14:21.935Z,33.59
2023-05-05T08:16:23.796Z,33.64
2023-05-05T08:18:25.371Z,33.59
2023-05-05T08:20:28.304Z,33.55
2023-05-05T08:22:29.738Z,33.08
2023-05-05T08:24:31.159Z,33.25
2023-05-05T08:26:32.704Z,33.48
2023-05-05T08:28:35.435Z,33.30
2023-05-05T08:30:36.977Z,33.33
2023-05-05T08:32:38.789Z,33.36
2023-05-05T08:34:40.478Z,33.15
2023-05-05T08:36:42.109Z,33.77
2023-05-05T08:38:43.832Z,33.59
2023-05-05T08:40:45.427Z,33.77
2023-05-05T08:42:46.979Z,33.98
2023-05-05T08:44:48.883Z,33.93
2023-05-05T08:46:50.631Z,34.17
2023-05-05T08:48:55.014Z,35.36
2023-05-05T08:51:00.334Z,34.17
2023-05-05T08:53:10.587Z,34.53
2023-05-05T08:55:19.556Z,34.39
2023-05-05T08:57:25.022Z,34.22
2023-05-05T08:59:30.313Z,34.76
2023-05-05T09:01:32.444Z,33.90
2023-05-05T09:03:35.647Z,34.20
2023-05-05T09:05:37.438Z,34.56
2023-05-05T09:07:41.395Z,34.71
2023-05-05T09:09:43.430Z,34.59
2023-05-05T09:11:45.015Z,34.81
2023-05-05T09:13:47.573Z,34.65
2023-05-05T09:15:49.165Z,34.89
2023-05-05T09:17:50.771Z,34.20
2023-05-05T09:20:05.424Z,34.59
2023-05-05T09:22:06.903Z,34.55
2023-05-05T09:24:09.682Z,34.47
2023-05-05T09:26:11.545Z,33.97
2023-05-05T09:28:14.163Z,33.92
2023-05-05T09:30:23.900Z,33.61
2023-05-05T09:32:25.779Z,33.73
2023-05-05T09:34:27.538Z,33.91
2023-05-05T09:36:47.406Z,34.17
2023-05-05T09:39:06.100Z,34.29
2023-05-05T09:41:07.854Z,34.17
2023-05-05T09:43:09.558Z,34.05
2023-05-05T09:45:20.149Z,33.72
2023-05-05T09:47:29.282Z,33.91
2023-05-05T09:49:31.612Z,33.81
2023-05-05T09:51:36.299Z,33.61
2023-05-05T09:53:39.492Z,33.50
2023-05-05T09:55:41.786Z,33.77
2023-05-05T09:57:43.306Z,33.95
2023-05-05T09:59:54.607Z,33.70
2023-05-05T10:02:09.368Z,34.00
2023-05-05T10:04:22.553Z,33.79
2023-05-05T10:06:39.320Z,33.88
2023-05-05T10:08:41.112Z,33.44
2023-05-05T10:10:51.732Z,33.36
2023-05-05T10:12:54.456Z,33.09
2023-05-05T10:14:56.730Z,33.02
2023-05-05T10:17:00.920Z,33.04
2023-05-05T10:19:03.348Z,33.43
2023-05-05T10:21:04.947Z,33.28
2023-05-05T10:23:08.220Z,33.05
2023-05-05T10:25:10.968Z,33.24
2023-05-05T10:27:15.531Z,33.08
2023-05-05T10:29:22.998Z,33.49
2023-05-05T10:31:27.029Z,33.23
2023-05-05T10:33:38.822Z,33.05
2023-05-05T10:35:41.652Z,32.64
2023-05-05T10:37:44.529Z,32.90
2023-05-05T10:39:46.637Z,33.11
2023-05-05T10:41:48.262Z,32.64
2023-05-05T10:43:50.044Z,33.38
2023-05-05T10:45:51.823Z,32.78
2023-05-05T10:47:54.642Z,32.86
2023-05-05T10:50:14.904Z,32.81
2023-05-05T10:52:28.377Z,32.91
2023-05-05T10:54:38.104Z,32.95
2023-05-05T10:56:41.176Z,32.90
2023-05-05T10:58:58.216Z,33.01
2023-05-05T11:01:02.369Z,32.97
2023-05-05T11:03:16.073Z,32.88
2023-05-05T11:05:18.231Z,33.35
2023-05-05T11:07:23.642Z,32.91
2023-05-05T11:09:26.981Z,33.47
2023-05-05T11:11:48.378Z,33.14
2023-05-05T11:14:09.812Z,33.13
2023-05-05T11:16:30.246Z,33.16
2023-05-05T11:18:39.018Z,33.44
2023-05-05T11:20:44.470Z,33.36
2023-05-05T11:23:04.279Z,33.45
2023-05-05T11:25:25.474Z,33.50
2023-05-05T11:27:46.909Z,33.33
2023-05-05T11:30:03.778Z,33.73
2023-05-05T11:32:15.521Z,33.36
2023-05-05T11:34:29.300Z,34.17
2023-05-05T11:36:40.486Z,33.62
2023-05-05T11:38:54.205Z,33.37
2023-05-05T11:40:59.327Z,33.34
2023-05-05T11:43:04.416Z,33.63
2023-05-05T11:45:19.607Z,33.59
2023-05-05T11:47:21.089Z,33.34
2023-05-05T11:49:32.994Z,33.31
2023-05-05T11:51:34.593Z,33.36
2023-05-05T11:53:36.259Z,33.72
2023-05-05T11:55:37.647Z,33.74
2023-05-05T11:57:39.144Z,33.43
2023-05-05T12:00:00.452Z,33.34
2023-05-05T12:02:03.312Z,33.10
2023-05-05T12:04:05.068Z,32.89
2023-05-05T12:06:07.412Z,33.32
2023-05-05T12:08:10.318Z,33.65
2023-05-05T12:10:11.934Z,33.25
2023-05-05T12:12:13.981Z,33.21
2023-05-05T12:14:15.488Z,32.94
2023-05-05T12:16:19.432Z,33.37
2023-05-05T12:18:21.085Z,33.17
2023-05-05T12:20:32.690Z,32.91
2023-05-05T12:22:36.164Z,33.32
2023-05-05T12:24:37.665Z,33.10
2023-05-05T12:26:39.405Z,33.05
2023-05-05T12:28:46.670Z,33.07
2023-05-05T12:30:58.733Z,32.99
2023-05-05T12:33:01.563Z,32.62
2023-05-05T12:35:03.592Z,32.52
2023-05-05T12:37:05.141Z,33.08
2023-05-05T12:39:06.678Z,32.87
2023-05-05T12:41:08.230Z,33.06
2023-05-05T12:43:09.815Z,32.53
2023-05-05T12:45:17.319Z,32.91
2023-05-05T12:47:31.994Z,32.73
2023-05-05T12:49:49.371Z,32.64
2023-05-05T12:51:54.871Z,32.72
2023-05-05T12:54:03.098Z,32.44
2023-05-05T12:56:04.760Z,32.18
2023-05-05T12:58:06.337Z,32.31
2023-05-05T13:00:14.848Z,32.45
2023-05-05T13:02:16.979Z,32.36
2023-05-05T13:04:19.134Z,31.80
2023-05-05T13:06:21.105Z,31.93
2023-05-05T13:08:22.672Z,31.73
2023-05-05T13:10:25.073Z,31.60
2023-05-05T13:12:26.750Z,31.92
2023-05-05T13:14:28.312Z,31.98
2023-05-05T13:16:30.039Z,32.01
2023-05-05T13:18:31.618Z,32.03
2023-05-05T13:20:33.129Z,32.02
2023-05-05T13:22:34.593Z,32.06
2023-05-05T13:24:49.762Z,32.07
2023-05-05T13:26:53.188Z,31.53
2023-05-05T13:28:55.209Z,33.78
2023-05-05T13:30:58.609Z,32.58
2023-05-05T13:33:00.053Z,32.19
2023-05-05T13:35:01.667Z,33.21
2023-05-05T13:37:03.342Z,32.68
2023-05-05T13:39:05.047Z,32.09
2023-05-05T13:41:06.527Z,32.03
2023-05-05T13:43:08.045Z,31.96
2023-05-05T13:45:09.909Z,32.16
2023-05-05T13:47:11.561Z,31.95
2023-05-05T13:49:13.311Z,31.67
2023-05-05T13:51:15.983Z,31.83
2023-05-05T13:53:17.498Z,31.78
2023-05-05T13:55:19.059Z,32.20
2023-05-05T13:57:20.531Z,31.55
2023-05-05T13:59:22.176Z,31.80
2023-05-05T14:01:23.782Z,31.76
2023-05-05T14:03:25.358Z,31.74
2023-05-05T14:05:26.908Z,31.65
2023-05-05T14:07:28.542Z,32.27
2023-05-05T14:09:30.112Z,31.97
2023-05-05T14:11:31.656Z,31.52
2023-05-05T14:13:33.104Z,31.69
2023-05-05T14:15:34.661Z,32.15
2023-05-05T14:17:36.190Z,32.25
2023-05-05T14:19:37.907Z,32.49
2023-05-05T14:21:39.638Z,32.06
2023-05-05T14:23:41.119Z,32.13
2023-05-05T14:25:42.727Z,31.99
2023-05-05T14:27:44.336Z,31.91
2023-05-05T14:29:45.869Z,31.79
2023-05-05T14:31:47.346Z,32.11
2023-05-05T14:33:49.000Z,31.61
2023-05-05T14:35:50.522Z,31.90
2023-05-05T14:37:51.961Z,31.78
2023-05-05T14:39:54.632Z,31.86
2023-05-05T14:41:56.115Z,32.09
2023-05-05T14:43:57.566Z,31.91
2023-05-05T14:46:00.368Z,32.03
2023-05-05T14:48:02.391Z,32.08
2023-05-05T14:50:04.108Z,32.36
2023-05-05T14:52:05.787Z,31.85
2023-05-05T14:54:14.307Z,31.98
2023-05-05T14:56:22.730Z,32.18
2023-05-05T14:58:24.775Z,32.14
2023-05-05T15:00:26.875Z,32.04
2023-05-05T15:02:30.892Z,32.02
2023-05-05T15:04:32.383Z,31.85
2023-05-05T15:06:33.964Z,31.79
2023-05-05T15:08:35.556Z,32.19
2023-05-05T15:10:37.046Z,32.25
2023-05-05T15:12:39.223Z,32.23
2023-05-05T15:14:40.880Z,32.45
2023-05-05T15:16:42.484Z,32.58
2023-05-05T15:18:43.929Z,32.55
2023-05-05T15:20:45.582Z,32.54
2023-05-05T15:22:48.445Z,32.36
2023-05-05T15:24:51.124Z,32.33
2023-05-05T15:26:52.554Z,32.27
2023-05-05T15:28:53.956Z,32.10
2023-05-05T15:30:55.463Z,32.30
2023-05-05T15:32:57.093Z,32.33
2023-05-05T15:34:58.702Z,32.48
2023-05-05T15:37:00.399Z,32.67
2023-05-05T15:39:02.057Z,32.66
2023-05-05T15:41:03.845Z,32.83
2023-05-05T15:43:05.576Z,32.59
2023-05-05T15:45:08.181Z,32.52
2023-05-05T15:47:10.973Z,32.31
2023-05-05T15:49:12.492Z,32.06
2023-05-05T15:51:14.038Z,32.11
2023-05-05T15:53:16.492Z,31.96
2023-05-05T15:55:17.974Z,31.81
2023-05-05T15:57:19.441Z,31.84
2023-05-05T15:59:21.035Z,31.63
2023-05-05T16:01:22.616Z,32.05
2023-05-05T16:03:24.415Z,31.87
2023-05-05T16:05:25.939Z,31.86
2023-05-05T16:07:27.358Z,31.91
2023-05-05T16:09:28.987Z,31.90
2023-05-05T16:11:30.859Z,32.09
2023-05-05T16:13:32.606Z,32.33
2023-05-05T16:15:35.199Z,32.82
2023-05-05T16:17:36.733Z,32.58
2023-05-05T16:19:38.438Z,32.80
2023-05-05T16:21:39.861Z,32.46
2023-05-05T16:23:41.414Z,32.97
2023-05-05T16:25:43.133Z,33.21
2023-05-05T16:27:44.575Z,33.35
2023-05-05T16:29:46.069Z,33.33
2023-05-05T16:31:47.703Z,33.38
2023-05-05T16:33:49.201Z,33.06
2023-05-05T16:35:50.654Z,33.15
2023-05-05T16:37:52.562Z,33.74
2023-05-05T16:39:53.963Z,33.64
2023-05-05T16:41:55.445Z,33.80
2023-05-05T16:43:57.086Z,34.00
2023-05-05T16:46:00.134Z,33.85
2023-05-05T16:48:01.793Z,33.74
2023-05-05T16:50:03.967Z,33.99
2023-05-05T16:52:05.473Z,33.56
2023-05-05T16:54:06.969Z,33.70
2023-05-05T16:56:11.300Z,33.57
2023-05-05T16:58:12.834Z,33.69
2023-05-05T17:00:14.600Z,33.40
2023-05-05T17:02:16.176Z,33.79
2023-05-05T17:04:17.648Z,33.55
2023-05-05T17:06:19.349Z,33.59
2023-05-05T17:08:20.862Z,33.89
2023-05-05T17:10:22.922Z,33.57
2023-05-05T17:12:24.373Z,33.66
2023-05-05T17:14:27.295Z,33.48
2023-05-05T17:16:28.785Z,33.57
2023-05-05T17:18:30.318Z,33.75
2023-05-05T17:20:32.078Z,33.45
2023-05-05T17:22:33.586Z,33.55
2023-05-05T17:24:35.008Z,33.48
2023-05-05T17:26:36.649Z,33.47
2023-05-05T17:28:38.101Z,33.95
2023-05-05T17:30:39.669Z,34.38
2023-05-05T17:32:41.534Z,34.38
2023-05-05T17:34:43.021Z,34.85
2023-05-05T17:36:44.453Z,35.12
2023-05-05T17:38:45.927Z,35.84
2023-05-05T17:40:47.524Z,37.04
2023-05-05T17:42:48.948Z,37.43
2023-05-05T17:44:50.504Z,37.88
2023-05-05T17:46:52.039Z,38.23
2023-05-05T17:48:53.683Z,38.20
2023-05-05T17:50:55.253Z,38.74
2023-05-05T17:52:56.680Z,38.65
2023-05-05T17:54:58.122Z,39.03
2023-05-05T17:56:59.644Z,38.90
2023-05-05T17:59:01.437Z,38.96
2023-05-05T18:01:02.981Z,39.33
2023-05-05T18:03:04.740Z,39.63
2023-05-05T18:05:06.479Z,39.50
2023-05-05T18:07:08.417Z,39.17
2023-05-05T18:09:11.154Z,39.47
2023-05-05T18:11:12.978Z,39.80
2023-05-05T18:13:14.473Z,39.76
2023-05-05T18:15:15.986Z,39.84
2023-05-05T18:17:17.626Z,39.65
2023-05-05T18:19:20.048Z,39.59
2023-05-05T18:21:21.529Z,39.65
2023-05-05T18:23:23.015Z,40.24
2023-05-05T18:25:24.563Z,39.98
2023-05-05T18:27:28.646Z,39.87
2023-05-05T18:29:30.304Z,39.48
2023-05-05T18:31:31.852Z,40.40
2023-05-05T18:33:33.387Z,39.38
2023-05-05T18:35:34.870Z,39.27
2023-05-05T18:37:36.375Z,38.97
2023-05-05T18:39:38.216Z,38.57
2023-05-05T18:41:39.839Z,38.45
2023-05-05T18:43:41.375Z,37.88
2023-05-05T18:45:42.834Z,38.00
2023-05-05T18:47:44.417Z,38.01
2023-05-05T18:49:45.870Z,37.89
2023-05-05T18:51:47.454Z,37.71
2023-05-05T18:53:49.480Z,37.83
2023-05-05T18:55:51.045Z,37.93
2023-05-05T18:57:53.129Z,37.86
2023-05-05T18:59:54.598Z,37.76
2023-05-05T19:01:56.468Z,37.75
2023-05-05T19:03:58.164Z,37.46
2023-05-05T19:05:59.610Z,37.71
2023-05-05T19:08:01.067Z,37.53
2023-05-05T19:10:04.057Z,37.44
2023-05-05T19:12:07.863Z,37.39
2023-05-05T19:14:09.268Z,37.57
2023-05-05T19:16:11.679Z,37.70
2023-05-05T19:18:13.645Z,37.54
2023-05-05T19:20:15.113Z,37.51
2023-05-05T19:22:17.600Z,37.37
2023-05-05T19:24:19.120Z,37.02
2023-05-05T19:26:21.789Z,37.40
2023-05-05T19:28:23.266Z,37.11
2023-05-05T19:30:24.827Z,37.47
2023-05-05T19:32:26.920Z,37.45
2023-05-05T19:34:28.424Z,37.25
2023-05-05T19:36:31.607Z,37.24
2023-05-05T19:38:33.053Z,37.38
2023-05-05T19:40:34.465Z,37.26
2023-05-05T19:42:35.936Z,37.14
2023-05-05T19:44:37.695Z,37.25
2023-05-05T19:46:39.323Z,37.14
2023-05-05T19:48:41.270Z,36.79
2023-05-05T19:50:42.763Z,36.99
2023-05-05T19:52:44.280Z,36.86
2023-05-05T19:54:45.732Z,36.61
2023-05-05T19:56:47.333Z,37.02
2023-05-05T19:59:07.096Z,36.89
2023-05-05T20:01:08.590Z,36.99
2023-05-05T20:03:11.025Z,36.92
2023-05-05T20:05:14.046Z,37.02
2023-05-05T20:07:15.811Z,36.91
2023-05-05T20:09:17.718Z,36.83
2023-05-05T20:11:20.138Z,36.80
2023-05-05T20:13:21.789Z,36.83
2023-05-05T20:15:23.372Z,36.79
2023-05-05T20:17:26.165Z,36.68
2023-05-05T20:19:27.808Z,36.84
2023-05-05T20:21:29.591Z,36.72
2023-05-05T20:23:31.125Z,36.75
2023-05-05T20:25:32.567Z,36.73
2023-05-05T20:27:35.864Z,36.52
2023-05-05T20:29:40.994Z,36.54
2023-05-05T20:31:42.518Z,36.44
2023-05-05T20:33:44.074Z,36.58
2023-05-05T20:35:45.633Z,36.58
2023-05-05T20:37:48.601Z,36.18
2023-05-05T20:39:51.139Z,36.58
2023-05-05T20:41:52.594Z,36.17
2023-05-05T20:43:53.999Z,36.50
2023-05-05T20:45:55.628Z,36.40
2023-05-05T20:47:57.231Z,36.43
2023-05-05T20:49:58.781Z,36.34
2023-05-05T20:52:00.228Z,36.02
2023-05-05T20:54:02.218Z,36.14
2023-05-05T20:56:04.800Z,36.08
2023-05-05T20:58:07.784Z,36.36
2023-05-05T21:00:09.711Z,36.08
2023-05-05T21:02:11.440Z,36.29
2023-05-05T21:04:12.921Z,36.14
2023-05-05T21:06:14.292Z,36.09
2023-05-05T21:08:15.974Z,35.91
2023-05-05T21:10:18.576Z,36.17
2023-05-05T21:12:20.031Z,36.26
2023-05-05T21:14:21.897Z,36.17
2023-05-05T21:16:23.358Z,36.04
2023-05-05T21:18:27.434Z,35.88
2023-05-05T21:20:28.910Z,35.99
2023-05-05T21:22:30.664Z,36.00
2023-05-05T21:24:32.255Z,35.62
2023-05-05T21:26:33.774Z,36.04
2023-05-05T21:28:35.377Z,35.68
2023-05-05T21:30:38.081Z,35.82
2023-05-05T21:32:39.986Z,35.66
2023-05-05T21:34:41.490Z,35.78
2023-05-05T21:36:42.995Z,35.94
2023-05-05T21:38:44.681Z,35.56
2023-05-05T21:40:46.294Z,35.55
2023-05-05T21:42:47.774Z,35.38
2023-05-05T21:44:49.513Z,35.59
2023-05-05T21:46:52.782Z,35.81
2023-05-05T21:48:54.335Z,35.51
2023-05-05T21:50:55.819Z,35.82
2023-05-05T21:52:57.378Z,35.77
2023-05-05T21:54:58.905Z,35.47
2023-05-05T21:57:00.515Z,35.64
2023-05-05T21:59:02.405Z,35.33
2023-05-05T22:01:03.987Z,35.63
2023-05-05T22:03:05.627Z,35.34
2023-05-05T22:05:07.380Z,35.32
2023-05-05T22:07:08.871Z,35.49
2023-05-05T22:09:10.574Z,35.74
2023-05-05T22:11:12.085Z,35.32
2023-05-05T22:13:14.514Z,35.38
2023-05-05T22:15:19.242Z,35.21
2023-05-05T22:17:20.722Z,35.32
2023-05-05T22:19:22.170Z,35.66
2023-05-05T22:21:23.774Z,35.31
2023-05-05T22:23:25.362Z,35.31
2023-05-05T22:25:26.883Z,35.50
2023-05-05T22:27:28.314Z,35.24
2023-05-05T22:29:29.812Z,35.12
2023-05-05T22:31:31.472Z,35.41
2023-05-05T22:33:33.054Z,35.43
2023-05-05T22:35:34.467Z,35.21
2023-05-05T22:37:36.427Z,35.31
2023-05-05T22:39:37.842Z,35.11
2023-05-05T22:41:39.233Z,35.19
2023-05-05T22:43:40.731Z,35.06
2023-05-05T22:45:43.144Z,35.10
2023-05-05T22:47:45.222Z,35.32
2023-05-05T22:49:47.472Z,35.38
2023-05-05T22:51:49.027Z,34.93
2023-05-05T22:53:51.082Z,35.01
2023-05-05T22:55:52.595Z,35.08
2023-05-05T22:57:54.598Z,35.06
2023-05-05T22:59:56.133Z,34.93
2023-05-05T23:01:57.915Z,35.08
2023-05-05T23:03:59.480Z,35.27
2023-05-05T23:06:00.906Z,34.97
2023-05-05T23:08:02.366Z,35.00
2023-05-05T23:10:04.157Z,35.29
2023-05-05T23:12:05.711Z,35.30
2023-05-05T23:14:07.089Z,35.01
2023-05-05T23:16:08.680Z,35.05
2023-05-05T23:18:10.211Z,35.01
2023-05-05T23:20:13.066Z,35.17
2023-05-05T23:22:14.587Z,34.95
2023-05-05T23:24:16.082Z,34.86
2023-05-05T23:26:17.474Z,35.09
2023-05-05T23:28:20.293Z,35.19
2023-05-05T23:30:21.790Z,34.81
2023-05-05T23:32:23.846Z,34.80
2023-05-05T23:34:25.905Z,35.19
2023-05-05T23:36:27.657Z,35.10
2023-05-05T23:38:29.411Z,34.74
2023-05-05T23:40:31.122Z,34.93
2023-05-05T23:42:32.919Z,35.21
2023-05-05T23:44:34.468Z,34.98
2023-05-05T23:46:36.033Z,35.00
2023-05-05T23:48:37.534Z,35.08
2023-05-05T23:50:39.419Z,34.92
2023-05-05T23:52:41.813Z,34.97
2023-05-05T23:54:44.473Z,34.61
2023-05-05T23:56:47.754Z,34.85
2023-05-05T23:58:49.201Z,35.02
